This is the latest recevied weather packets stored in our database for station/object KR4CWL-13. If no packets are shown the sender has not sent any weather packets the latest 10 day(s).
| Time | Temp. | Humidity | Pressure | Rain* | Wind** | Luminosity | Snow |
|---|---|---|---|---|---|---|---|
| 1777125805 | 29.44° C | 46% | 1002 hPa | 0 mm | - | - | - |
| 1777125205 | 28.89° C | 48% | 1002.4 hPa | 0 mm | - | - | - |
| 1777124605 | 27.78° C | 50% | 1002 hPa | 0 mm | - | - | - |
| 1777124005 | 26.67° C | 52% | 1002 hPa | 0 mm | - | - | - |
| 1777123405 | 25.56° C | 55% | 1002 hPa | 0 mm | - | - | - |
| 1777122805 | 24.44° C | 57% | 1002 hPa | 0 mm | - | - | - |
| 1777122205 | 23.33° C | 60% | 1002 hPa | 0 mm | - | - | - |
| 1777121605 | 21.67° C | 66% | 1002 hPa | 0 mm | - | - | - |
| 1777121005 | 20° C | 71% | 1002 hPa | 0 mm | - | - | - |
| 1777120405 | 18.89° C | 75% | 1002 hPa | 0 mm | - | - | - |
| 1777119805 | 17.78° C | 76% | 1002 hPa | 0 mm | - | - | - |
| 1777119205 | 16.67° C | 78% | 1002 hPa | 0 mm | - | - | - |
| 1777118605 | 16.11° C | 83% | 1002 hPa | 0 mm | - | - | - |
| 1777118005 | 15° C | 84% | 1002 hPa | 0 mm | - | - | - |
| 1777117405 | 14.44° C | 84% | 1002 hPa | 0 mm | - | - | - |
| 1777116805 | 14.44° C | 85% | 1002 hPa | 0 mm | - | - | - |
| 1777116205 | 13.89° C | 84% | 1002 hPa | 0 mm | - | - | - |
| 1777115605 | 13.89° C | 84% | 1001.7 hPa | 0 mm | - | - | - |
| 1777115005 | 13.89° C | 84% | 1001.7 hPa | 0 mm | - | - | - |
| 1777114405 | 13.89° C | 84% | 1001.7 hPa | 0 mm | - | - | - |
| 1777113805 | 13.89° C | 84% | 1001.7 hPa | 0 mm | - | - | - |
| 1777113205 | 14.44° C | 82% | 1001.4 hPa | 0 mm | - | - | - |
| 1777112604 | 14.44° C | 83% | 1001.4 hPa | 0 mm | - | - | - |
| 1777112005 | 14.44° C | 81% | 1001.4 hPa | 0 mm | - | - | - |
| 1777111404 | 15° C | 80% | 1001.4 hPa | 0 mm | - | - | - |
* Rain since midnight (hover to see other rain measurements)
** Current wind speed in m/s (hover to see current wind gust speed)